Time;durP1;ratioP1;P1;durP2;ratioP2;P2;SDS_P1;SDS_P2;PMS_P1;PMS_P2;Temp;Humidity;BMP_temperature;BMP_pressure;BME280_temperature;BME280_humidity;BME280_pressure;Samples;Min_cycle;Max_cycle;Signal;HPM_P1;HPM_P2
2023/10/21 00:00:32;;;;;;;4.03;3.60;;;14.70;99.90;;;;;;4974470;28;20526;-76
2023/10/21 00:02:57;;;;;;;5.83;3.73;;;14.80;99.90;;;;;;4974358;28;20176;-76
2023/10/21 00:05:25;;;;;;;4.33;3.30;;;14.80;99.90;;;;;;4974151;28;20666;-74
2023/10/21 00:07:51;;;;;;;11.13;3.83;;;14.70;99.90;;;;;;4974208;28;20263;-76
2023/10/21 00:10:17;;;;;;;5.07;4.20;;;14.70;99.90;;;;;;4974326;28;20275;-76
2023/10/21 00:12:44;;;;;;;7.87;4.00;;;14.70;99.90;;;;;;4974074;28;20172;-75
2023/10/21 00:15:10;;;;;;;7.47;3.57;;;14.60;99.90;;;;;;4974328;28;20222;-77
2023/10/21 00:17:35;;;;;;;7.27;3.37;;;14.60;99.90;;;;;;4974373;28;20231;-76
2023/10/21 00:20:03;;;;;;;5.40;3.20;;;14.70;99.90;;;;;;4974063;28;20179;-76
2023/10/21 00:22:29;;;;;;;5.43;3.10;;;14.60;99.90;;;;;;4974036;28;20262;-76
2023/10/21 00:24:55;;;;;;;4.47;2.90;;;14.60;99.90;;;;;;4974159;28;20247;-75
2023/10/21 00:27:20;;;;;;;6.67;2.83;;;14.60;99.90;;;;;;4973725;28;20204;-76
2023/10/21 00:29:46;;;;;;;6.27;3.27;;;14.60;99.90;;;;;;4974348;28;20534;-75
2023/10/21 00:32:11;;;;;;;5.00;3.23;;;14.60;99.90;;;;;;4973957;28;20591;-75
2023/10/21 00:34:40;;;;;;;5.07;3.63;;;14.50;99.90;;;;;;4973781;28;20180;-75
2023/10/21 00:37:07;;;;;;;6.50;3.63;;;14.50;99.90;;;;;;4973986;28;20199;-74
2023/10/21 00:39:34;;;;;;;5.70;3.50;;;14.50;99.90;;;;;;4973987;28;20178;-75
2023/10/21 00:42:04;;;;;;;6.17;4.00;;;14.50;99.90;;;;;;4973795;28;20168;-75
2023/10/21 00:44:30;;;;;;;7.37;3.80;;;14.50;99.90;;;;;;4973736;28;20706;-75
2023/10/21 00:46:59;;;;;;;5.90;3.97;;;14.50;99.90;;;;;;4974044;28;20194;-75
2023/10/21 00:49:28;;;;;;;6.40;3.90;;;14.50;99.90;;;;;;4973805;28;20165;-75
2023/10/21 00:51:55;;;;;;;6.23;4.53;;;14.50;99.90;;;;;;4973882;28;20172;-75
2023/10/21 00:54:22;;;;;;;6.13;4.87;;;14.50;99.90;;;;;;4973576;28;20234;-75
2023/10/21 00:56:48;;;;;;;9.03;4.50;;;14.40;99.90;;;;;;4972609;28;20267;-75
2023/10/21 00:59:15;;;;;;;8.97;4.60;;;14.40;99.90;;;;;;4973810;28;20283;-75
2023/10/21 01:01:40;;;;;;;9.63;4.70;;;14.40;99.90;;;;;;4975757;28;20179;-75
2023/10/21 01:04:08;;;;;;;11.37;4.30;;;14.40;99.90;;;;;;4977305;28;20547;-76
2023/10/21 01:06:34;;;;;;;6.07;4.30;;;14.40;99.90;;;;;;4977271;28;20666;-75
2023/10/21 01:08:59;;;;;;;6.97;4.33;;;14.40;99.90;;;;;;4977019;28;20176;-75
2023/10/21 01:11:25;;;;;;;9.40;4.20;;;14.40;99.90;;;;;;4977318;28;20282;-76
2023/10/21 01:13:51;;;;;;;5.27;3.60;;;14.50;99.90;;;;;;4977128;28;20199;-76
2023/10/21 01:16:17;;;;;;;7.40;4.03;;;14.50;99.90;;;;;;4976927;28;20276;-75
2023/10/21 01:18:43;;;;;;;5.60;4.17;;;14.50;99.90;;;;;;4977046;28;20688;-75
2023/10/21 01:21:09;;;;;;;7.77;4.57;;;14.50;99.90;;;;;;4976984;28;20184;-75
2023/10/21 01:23:36;;;;;;;6.23;3.90;;;14.50;99.90;;;;;;4976370;28;20327;-75
2023/10/21 01:26:03;;;;;;;9.00;4.33;;;14.50;99.90;;;;;;4976843;28;20208;-75
2023/10/21 01:28:32;;;;;;;7.13;4.03;;;14.50;99.90;;;;;;4976789;28;20172;-74
2023/10/21 01:30:58;;;;;;;5.63;4.07;;;14.60;99.90;;;;;;4976618;28;20180;-75
2023/10/21 01:33:24;;;;;;;6.33;3.90;;;14.60;99.90;;;;;;4976953;28;20535;-75
2023/10/21 01:35:49;;;;;;;7.13;3.97;;;14.60;99.90;;;;;;4976826;28;20176;-76
2023/10/21 01:38:15;;;;;;;4.70;3.70;;;14.60;99.90;;;;;;4976229;28;20180;-75
2023/10/21 01:40:41;;;;;;;6.37;3.67;;;14.50;99.90;;;;;;4976680;28;20566;-75
2023/10/21 01:43:06;;;;;;;6.77;3.73;;;14.50;99.90;;;;;;4976597;28;20646;-75
2023/10/21 01:45:34;;;;;;;9.33;4.00;;;14.60;99.90;;;;;;4976298;28;20254;-75
2023/10/21 01:48:00;;;;;;;7.00;3.50;;;14.50;99.90;;;;;;4976401;28;20179;-76
2023/10/21 01:50:26;;;;;;;10.50;3.97;;;14.60;99.90;;;;;;4976449;28;20187;-75
2023/10/21 01:52:51;;;;;;;7.23;3.90;;;14.60;99.90;;;;;;4974684;28;20284;-76
2023/10/21 01:55:17;;;;;;;5.57;4.00;;;14.70;99.90;;;;;;4976395;28;20572;-76
2023/10/21 01:57:42;;;;;;;7.20;4.17;;;14.60;99.90;;;;;;4976221;28;20531;-76
2023/10/21 02:00:09;;;;;;;8.97;4.40;;;14.60;99.90;;;;;;4976101;28;20183;-75
2023/10/21 02:02:36;;;;;;;10.63;4.37;;;14.60;99.90;;;;;;4976388;28;20636;-75
2023/10/21 02:05:02;;;;;;;7.17;4.13;;;14.60;99.90;;;;;;4976159;28;20212;-75
2023/10/21 02:07:27;;;;;;;9.30;4.17;;;14.60;99.90;;;;;;4975848;28;20186;-75
2023/10/21 02:09:53;;;;;;;9.70;4.10;;;14.50;99.90;;;;;;4975874;28;20176;-76
2023/10/21 02:12:19;;;;;;;9.43;4.13;;;14.50;99.90;;;;;;4975632;28;20172;-75
2023/10/21 02:14:44;;;;;;;6.67;4.20;;;14.50;99.90;;;;;;4976055;28;20716;-75
2023/10/21 02:17:10;;;;;;;9.27;4.50;;;14.50;99.90;;;;;;4976001;28;20687;-76
2023/10/21 02:19:35;;;;;;;8.30;4.50;;;14.40;99.90;;;;;;4975965;28;20190;-74
2023/10/21 02:22:01;;;;;;;7.33;4.57;;;14.40;99.90;;;;;;4975339;28;20176;-76
2023/10/21 02:24:27;;;;;;;9.70;4.40;;;14.40;99.90;;;;;;4974654;28;20247;-75
2023/10/21 02:26:52;;;;;;;8.67;3.63;;;14.40;99.90;;;;;;4975750;28;20267;-75
2023/10/21 02:29:18;;;;;;;8.73;4.87;;;14.40;99.90;;;;;;4975501;28;20180;-76
2023/10/21 02:31:44;;;;;;;6.30;4.07;;;14.40;99.90;;;;;;4975671;28;20207;-76
2023/10/21 02:34:09;;;;;;;6.83;4.53;;;14.40;99.90;;;;;;4975625;28;20255;-76
2023/10/21 02:36:35;;;;;;;5.97;4.27;;;14.40;99.90;;;;;;4974036;28;20549;-75
2023/10/21 02:39:01;;;;;;;8.90;3.87;;;14.40;99.90;;;;;;4975468;28;20510;-74
2023/10/21 02:41:26;;;;;;;7.37;4.30;;;14.50;99.90;;;;;;4975493;28;20544;-76
2023/10/21 02:43:52;;;;;;;8.53;4.47;;;14.50;99.90;;;;;;4975246;28;20176;-75
2023/10/21 02:46:19;;;;;;;6.80;4.63;;;14.60;99.90;;;;;;4975605;28;20216;-76
2023/10/21 02:48:45;;;;;;;10.83;5.07;;;14.60;99.90;;;;;;4975421;28;20180;-75
2023/10/21 02:51:17;;;;;;;11.00;5.10;;;14.60;99.90;;;;;;4974860;28;20183;-76
2023/10/21 02:53:44;;;;;;;7.47;5.00;;;14.60;99.90;;;;;;4975210;28;20207;-75
2023/10/21 02:56:13;;;;;;;7.00;5.17;;;14.70;99.90;;;;;;4975015;28;20698;-74
2023/10/21 02:58:39;;;;;;;9.23;4.97;;;14.70;99.90;;;;;;4975160;28;20235;-75
2023/10/21 03:01:16;;;;;;;8.90;4.73;;;14.60;99.90;;;;;;4975146;28;20278;-75
2023/10/21 03:03:43;;;;;;;10.00;4.87;;;14.60;99.90;;;;;;4975026;28;20167;-75
2023/10/21 03:06:09;;;;;;;8.17;4.60;;;14.70;99.90;;;;;;4974700;28;20219;-76
2023/10/21 03:08:37;;;;;;;10.23;4.37;;;14.70;99.90;;;;;;4974776;28;20172;-76
2023/10/21 03:11:04;;;;;;;10.83;4.20;;;14.70;99.90;;;;;;4975522;28;20195;-76
2023/10/21 03:13:37;;;;;;;7.27;4.07;;;14.80;99.90;;;;;;4974994;28;20176;-75
2023/10/21 03:16:09;;;;;;;6.67;3.80;;;14.80;99.90;;;;;;4974711;28;20640;-76
2023/10/21 03:18:37;;;;;;;6.33;3.90;;;14.80;99.90;;;;;;4974827;28;20180;-76
2023/10/21 03:21:03;;;;;;;10.17;3.90;;;14.80;99.90;;;;;;4974323;28;20179;-76
2023/10/21 03:23:30;;;;;;;6.97;3.83;;;14.70;99.90;;;;;;4973517;28;20262;-75
2023/10/21 03:26:00;;;;;;;11.63;3.97;;;14.80;99.90;;;;;;4974753;28;20254;-75
2023/10/21 03:28:26;;;;;;;5.83;3.67;;;14.70;99.90;;;;;;4974813;28;20183;-77
2023/10/21 03:30:59;;;;;;;5.70;4.03;;;14.80;99.90;;;;;;4974443;28;20172;-77
2023/10/21 03:33:26;;;;;;;8.63;3.80;;;14.80;99.90;;;;;;4974408;28;20218;-76
2023/10/21 03:35:53;;;;;;;11.40;4.17;;;14.80;99.90;;;;;;4974098;28;20175;-76
2023/10/21 03:38:19;;;;;;;6.17;3.60;;;14.90;99.90;;;;;;4974522;28;20183;-76
2023/10/21 03:41:07;;;;;;;10.57;3.87;;;14.90;99.90;;;;;;4974827;28;20664;-75
2023/10/21 03:43:34;;;;;;;6.80;4.10;;;14.90;99.90;;;;;;4974457;28;20231;-75
2023/10/21 03:46:05;;;;;;;8.57;4.20;;;14.90;99.90;;;;;;4974388;28;20222;-75
2023/10/21 03:48:32;;;;;;;8.70;4.10;;;14.90;99.90;;;;;;4973621;28;20199;-75
2023/10/21 03:51:14;;;;;;;10.50;4.13;;;15.00;99.90;;;;;;4974095;28;20183;-76
2023/10/21 03:53:40;;;;;;;8.57;3.57;;;15.00;99.90;;;;;;4974388;28;20633;-76
2023/10/21 03:56:06;;;;;;;6.83;4.03;;;15.00;99.90;;;;;;4974325;28;20187;-76
2023/10/21 03:58:32;;;;;;;3.40;3.10;;;15.00;99.90;;;;;;4974003;28;20188;-76
2023/10/21 04:00:58;;;;;;;7.93;3.67;;;15.00;99.90;;;;;;4974174;28;20168;-76
2023/10/21 04:03:25;;;;;;;8.23;3.23;;;14.90;99.90;;;;;;4973582;28;20168;-75
2023/10/21 04:05:55;;;;;;;11.00;3.50;;;15.00;99.90;;;;;;4973956;28;20223;-75
2023/10/21 04:08:25;;;;;;;5.17;3.03;;;15.00;99.90;;;;;;4974326;28;20164;-76
2023/10/21 04:10:52;;;;;;;5.53;3.43;;;15.00;99.90;;;;;;4974112;28;20644;-77
2023/10/21 04:13:18;;;;;;;6.97;3.07;;;15.10;99.90;;;;;;4974163;28;20180;-76
2023/10/21 04:15:44;;;;;;;6.07;3.40;;;15.10;99.90;;;;;;4974084;28;20545;-77
2023/10/21 04:18:09;;;;;;;8.17;3.23;;;15.10;99.90;;;;;;4973855;28;20168;-77
2023/10/21 04:20:35;;;;;;;4.80;2.80;;;15.10;99.90;;;;;;4973770;28;20517;-75
2023/10/21 04:23:01;;;;;;;5.57;3.07;;;15.10;99.90;;;;;;4973924;28;20254;-78
2023/10/21 04:25:28;;;;;;;6.47;3.00;;;15.10;99.90;;;;;;4973959;28;20204;-75
2023/10/21 04:27:55;;;;;;;8.73;3.23;;;15.00;99.90;;;;;;4973582;28;20569;-75
2023/10/21 04:30:22;;;;;;;5.47;3.10;;;15.00;99.90;;;;;;4974066;28;20214;-76
2023/10/21 04:32:48;;;;;;;7.57;3.00;;;15.00;99.90;;;;;;4973557;28;20183;-75
2023/10/21 04:35:13;;;;;;;4.83;2.90;;;15.00;99.90;;;;;;4975222;28;20210;-75
2023/10/21 04:37:39;;;;;;;7.43;2.63;;;15.00;99.90;;;;;;4977905;28;20186;-75
2023/10/21 04:40:06;;;;;;;5.20;2.97;;;15.00;99.90;;;;;;4977273;28;20259;-76
2023/10/21 04:42:31;;;;;;;5.60;2.80;;;14.90;99.90;;;;;;4977190;28;20180;-75
2023/10/21 04:44:57;;;;;;;7.17;3.10;;;14.90;99.90;;;;;;4977207;28;20686;-76
2023/10/21 04:47:23;;;;;;;3.47;2.73;;;14.90;99.90;;;;;;4977041;28;20180;-76
2023/10/21 04:49:49;;;;;;;6.50;2.70;;;14.80;99.90;;;;;;4977082;28;20183;-76
2023/10/21 04:52:15;;;;;;;5.67;2.57;;;14.80;99.90;;;;;;4977109;28;20172;-75
2023/10/21 04:54:44;;;;;;;5.60;2.80;;;14.80;99.90;;;;;;4977210;28;20629;-75
2023/10/21 04:57:11;;;;;;;6.60;2.80;;;14.80;99.90;;;;;;4976997;28;20202;-75
2023/10/21 04:59:38;;;;;;;7.17;2.53;;;14.80;99.90;;;;;;4976835;28;20216;-77
2023/10/21 05:02:04;;;;;;;6.80;2.70;;;14.70;99.90;;;;;;4977413;28;20176;-77
2023/10/21 05:04:31;;;;;;;5.50;2.70;;;14.70;99.90;;;;;;4976851;28;20207;-75
2023/10/21 05:06:56;;;;;;;4.10;2.80;;;14.70;99.90;;;;;;4976931;28;20184;-76
2023/10/21 05:09:22;;;;;;;4.73;2.50;;;14.70;99.90;;;;;;4977026;28;20218;-76
2023/10/21 05:11:48;;;;;;;2.53;2.30;;;14.60;99.90;;;;;;4976715;28;20251;-76
2023/10/21 05:14:14;;;;;;;5.43;2.40;;;14.50;99.90;;;;;;4976976;28;20502;-76
2023/10/21 05:16:39;;;;;;;4.27;2.40;;;14.50;99.90;;;;;;4976664;28;20187;-75
2023/10/21 05:19:05;;;;;;;4.97;2.60;;;14.50;99.90;;;;;;4976162;28;20652;-75
2023/10/21 05:21:31;;;;;;;4.47;2.40;;;14.50;99.90;;;;;;4977119;28;20180;-75
2023/10/21 05:23:58;;;;;;;3.33;2.17;;;14.50;99.90;;;;;;4976463;28;20554;-77
2023/10/21 05:26:25;;;;;;;2.83;1.80;;;14.60;99.90;;;;;;4975834;28;20283;-75
2023/10/21 05:28:50;;;;;;;5.63;2.20;;;14.50;99.90;;;;;;4976785;28;20254;-74
2023/10/21 05:31:16;;;;;;;2.37;1.60;;;14.40;99.90;;;;;;4976351;28;20607;-75
2023/10/21 05:33:42;;;;;;;2.50;1.30;;;14.40;99.90;;;;;;4976663;28;20168;-76
2023/10/21 05:36:08;;;;;;;2.57;1.50;;;14.30;99.90;;;;;;4976146;28;20168;-76
2023/10/21 05:38:34;;;;;;;1.53;0.97;;;14.30;99.90;;;;;;4976520;28;20263;-76
2023/10/21 05:40:59;;;;;;;1.40;1.30;;;14.30;99.90;;;;;;4975905;28;20598;-76
2023/10/21 05:43:25;;;;;;;1.00;0.90;;;14.20;99.90;;;;;;4976575;28;20263;-76
2023/10/21 05:45:50;;;;;;;2.73;1.00;;;14.20;99.90;;;;;;4973864;28;20212;-76
2023/10/21 05:48:16;;;;;;;1.40;1.10;;;14.10;99.90;;;;;;4976228;28;20172;-76
2023/10/21 05:50:42;;;;;;;2.13;1.20;;;14.00;99.90;;;;;;4976234;28;20582;-76
2023/10/21 05:53:07;;;;;;;2.77;1.10;;;13.90;99.90;;;;;;4976492;28;20180;-77
2023/10/21 05:55:38;;;;;;;1.53;0.90;;;13.80;99.90;;;;;;4975633;28;20176;-76
2023/10/21 05:58:04;;;;;;;1.97;0.90;;;13.70;99.90;;;;;;4976126;28;20192;-75
2023/10/21 06:00:31;;;;;;;1.57;0.80;;;13.60;99.90;;;;;;4975555;28;20223;-76
2023/10/21 06:02:56;;;;;;;0.90;0.77;;;13.60;99.90;;;;;;4974673;28;20274;-76
2023/10/21 06:05:23;;;;;;;1.80;0.90;;;13.50;99.90;;;;;;4975801;28;20286;-76
2023/10/21 06:07:48;;;;;;;1.20;0.80;;;13.50;99.90;;;;;;4975504;28;20177;-76
2023/10/21 06:10:14;;;;;;;1.57;0.80;;;13.40;99.90;;;;;;4975845;28;20172;-76
2023/10/21 06:12:40;;;;;;;4.80;1.07;;;13.40;99.90;;;;;;4975596;28;20180;-77
2023/10/21 06:15:06;;;;;;;1.00;0.90;;;13.50;99.90;;;;;;4975669;28;20187;-75
2023/10/21 06:17:32;;;;;;;2.30;0.97;;;13.50;99.90;;;;;;4975607;28;20576;-76
2023/10/21 06:19:58;;;;;;;3.87;1.33;;;13.50;99.90;;;;;;4975728;28;20179;-76
2023/10/21 06:22:24;;;;;;;0.70;0.70;;;13.50;99.90;;;;;;4975050;28;20220;-76
2023/10/21 06:24:49;;;;;;;1.47;0.90;;;13.50;99.90;;;;;;4975265;28;20585;-76
2023/10/21 06:27:15;;;;;;;2.43;1.27;;;13.50;99.90;;;;;;4975697;28;20199;-76
2023/10/21 06:29:40;;;;;;;2.90;1.80;;;13.60;99.90;;;;;;4975145;28;20183;-77
2023/10/21 06:32:08;;;;;;;1.40;1.30;;;13.50;99.90;;;;;;4975417;28;20635;-76
2023/10/21 06:34:34;;;;;;;1.40;1.30;;;13.60;99.90;;;;;;4975455;28;20659;-76
2023/10/21 06:37:00;;;;;;;2.20;1.27;;;13.50;99.90;;;;;;4974544;28;20172;-78
2023/10/21 06:39:26;;;;;;;2.77;1.20;;;13.50;99.90;;;;;;4974344;28;20180;-77
2023/10/21 06:41:52;;;;;;;2.27;1.60;;;13.60;99.90;;;;;;4975527;28;20211;-77
2023/10/21 06:44:17;;;;;;;2.60;1.20;;;13.60;99.90;;;;;;4974628;28;20636;-76
2023/10/21 06:46:43;;;;;;;1.57;1.20;;;13.60;99.90;;;;;;4975074;28;20172;-77
2023/10/21 06:49:09;;;;;;;1.30;1.20;;;13.60;99.90;;;;;;4975060;28;20176;-76
2023/10/21 06:51:36;;;;;;;2.33;0.90;;;13.70;99.90;;;;;;4974995;28;20180;-76
2023/10/21 06:54:03;;;;;;;1.30;1.00;;;13.70;99.90;;;;;;4975141;28;20176;-77
2023/10/21 06:56:28;;;;;;;1.80;1.10;;;13.70;99.90;;;;;;4974815;28;20203;-76
2023/10/21 06:58:54;;;;;;;3.30;1.10;;;13.70;99.90;;;;;;4974527;28;20199;-78
2023/10/21 07:01:19;;;;;;;1.10;1.00;;;13.70;99.90;;;;;;4973681;28;20172;-76
2023/10/21 07:03:45;;;;;;;2.60;1.10;;;13.70;99.90;;;;;;4975001;28;20187;-76
2023/10/21 07:06:11;;;;;;;2.63;1.00;;;13.80;99.90;;;;;;4973428;28;20242;-77
2023/10/21 07:08:37;;;;;;;1.30;0.80;;;13.80;99.90;;;;;;4974749;28;20172;-76
2023/10/21 07:11:03;;;;;;;3.90;1.00;;;13.80;99.90;;;;;;4974553;28;20168;-77
2023/10/21 07:13:29;;;;;;;1.13;0.93;;;13.80;99.90;;;;;;4974361;28;20176;-77
2023/10/21 07:15:55;;;;;;;5.00;1.10;;;13.80;99.90;;;;;;4974805;28;20299;-77
2023/10/21 07:18:20;;;;;;;0.63;0.63;;;13.90;99.90;;;;;;4974009;28;20668;-77
2023/10/21 07:20:46;;;;;;;0.80;0.80;;;13.90;99.90;;;;;;4974159;28;20175;-76
2023/10/21 07:23:14;;;;;;;2.27;0.90;;;13.90;99.90;;;;;;4974319;28;20224;-76
2023/10/21 07:25:41;;;;;;;1.53;0.90;;;13.90;99.90;;;;;;4974280;28;20557;-76
2023/10/21 07:28:08;;;;;;;3.20;1.00;;;14.00;99.90;;;;;;4973002;28;20219;-75
2023/10/21 07:30:34;;;;;;;3.70;0.70;;;14.00;99.90;;;;;;4974127;28;20246;-75
2023/10/21 07:33:02;;;;;;;1.10;0.70;;;14.10;99.90;;;;;;4974343;28;20199;-76
2023/10/21 07:35:28;;;;;;;1.50;0.90;;;14.20;99.90;;;;;;4974515;28;20184;-77
2023/10/21 07:37:54;;;;;;;2.43;1.20;;;14.30;99.90;;;;;;4974021;28;20170;-77
2023/10/21 07:40:20;;;;;;;2.27;1.10;;;14.50;99.90;;;;;;4974012;28;20183;-78
2023/10/21 07:42:46;;;;;;;3.03;1.00;;;14.60;99.90;;;;;;4974027;28;20263;-78
2023/10/21 07:45:14;;;;;;;3.03;0.90;;;14.80;99.90;;;;;;4973006;28;20210;-76
2023/10/21 07:47:41;;;;;;;1.10;0.80;;;15.00;99.90;;;;;;4974029;28;20179;-75
2023/10/21 07:50:07;;;;;;;2.10;0.70;;;15.10;99.90;;;;;;4973828;28;20172;-76
2023/10/21 07:52:36;;;;;;;4.10;1.30;;;15.40;99.90;;;;;;4974219;28;20172;-75
2023/10/21 07:55:03;;;;;;;3.67;1.07;;;16.20;99.90;;;;;;4973256;28;20172;-75
2023/10/21 07:57:31;;;;;;;1.50;0.90;;;16.70;99.90;;;;;;4974062;28;20196;-76
2023/10/21 08:00:00;;;;;;;2.28;1.00;;;17.70;99.90;;;;;;4972611;28;20523;-75
2023/10/21 08:02:26;;;;;;;2.10;1.00;;;18.70;99.90;;;;;;4973769;28;20270;-75
2023/10/21 08:04:52;;;;;;;1.85;1.00;;;19.60;99.90;;;;;;4972359;28;20343;-75
2023/10/21 08:07:18;;;;;;;2.88;1.00;;;19.50;99.90;;;;;;4973736;28;20172;-75
2023/10/21 08:09:44;;;;;;;2.45;0.70;;;18.80;99.90;;;;;;4975536;28;20179;-77
2023/10/21 08:12:10;;;;;;;5.45;1.50;;;18.90;99.90;;;;;;4977741;28;20674;-76
2023/10/21 08:14:36;;;;;;;2.40;1.30;;;18.90;99.90;;;;;;4978212;28;20207;-76
2023/10/21 08:17:05;;;;;;;1.45;1.02;;;18.50;99.90;;;;;;4977450;28;20180;-76
2023/10/21 08:19:31;;;;;;;3.25;1.23;;;17.90;99.90;;;;;;4977707;28;20632;-76
2023/10/21 08:21:57;;;;;;;2.58;1.10;;;17.30;99.90;;;;;;4977856;28;20178;-75
2023/10/21 08:24:23;;;;;;;2.05;0.95;;;17.10;99.90;;;;;;4976915;28;20224;-75
2023/10/21 08:26:49;;;;;;;3.00;1.35;;;16.80;99.90;;;;;;4977824;28;20172;-76
2023/10/21 08:29:15;;;;;;;4.78;1.65;;;16.70;99.90;;;;;;4977392;28;20614;-75
2023/10/21 08:31:40;;;;;;;3.30;1.40;;;17.30;99.90;;;;;;4976932;28;20179;-75
2023/10/21 08:34:09;;;;;;;3.47;1.30;;;17.40;99.90;;;;;;4977659;28;20172;-75
2023/10/21 08:36:35;;;;;;;3.75;1.20;;;17.40;99.90;;;;;;4977444;28;20652;-76
2023/10/21 08:39:01;;;;;;;2.53;1.00;;;17.10;99.90;;;;;;4976882;28;20263;-75
2023/10/21 08:41:37;;;;;;;1.48;0.80;;;17.20;99.90;;;;;;4977455;28;20531;-75
2023/10/21 08:44:05;;;;;;;4.57;1.35;;;17.10;99.90;;;;;;4977178;28;20184;-74
2023/10/21 08:46:35;;;;;;;2.03;1.20;;;17.20;99.90;;;;;;4976795;28;20219;-74
2023/10/21 08:49:03;;;;;;;3.35;1.30;;;17.70;99.90;;;;;;4977077;28;20176;-75
2023/10/21 08:51:30;;;;;;;1.98;1.10;;;18.10;99.90;;;;;;4977009;28;20199;-75
2023/10/21 08:54:05;;;;;;;3.05;1.30;;;18.00;99.90;;;;;;4976952;28;20172;-76
2023/10/21 08:56:32;;;;;;;3.90;1.40;;;17.60;99.90;;;;;;4977080;28;20262;-74
2023/10/21 08:58:59;;;;;;;2.05;1.08;;;17.80;99.90;;;;;;4976992;28;20196;-74
2023/10/21 09:01:25;;;;;;;2.80;1.30;;;18.50;99.90;;;;;;4976546;28;20214;-74
2023/10/21 09:03:51;;;;;;;3.20;1.48;;;19.10;99.90;;;;;;4976920;28;20649;-74
2023/10/21 09:06:19;;;;;;;2.83;1.20;;;18.90;99.90;;;;;;4976276;28;20216;-74
2023/10/21 09:08:47;;;;;;;4.35;1.45;;;18.90;99.90;;;;;;4976543;28;20191;-74
2023/10/21 09:11:33;;;;;;;9.63;1.67;;;19.00;99.90;;;;;;4976485;28;20195;-75
2023/10/21 09:13:59;;;;;;;7.50;1.83;;;18.40;99.90;;;;;;4976456;28;20233;-73
2023/10/21 09:16:27;;;;;;;6.95;1.50;;;18.70;99.90;;;;;;4976594;28;20520;-74
2023/10/21 09:18:56;;;;;;;4.32;1.58;;;19.30;99.90;;;;;;4976709;28;20176;-75
2023/10/21 09:21:38;;;;;;;3.60;1.50;;;19.60;99.90;;;;;;4975075;28;20326;-74
2023/10/21 09:24:05;;;;;;;3.15;1.50;;;19.90;99.90;;;;;;4975635;28;20219;-73
2023/10/21 09:26:32;;;;;;;5.13;1.40;;;19.90;99.90;;;;;;4976240;28;20207;-74
2023/10/21 09:29:06;;;;;;;3.97;1.70;;;20.50;99.90;;;;;;4976430;28;20190;-75
2023/10/21 09:31:52;;;;;;;2.50;1.45;;;21.40;97.40;;;;;;4976254;28;20231;-75
2023/10/21 09:34:33;;;;;;;6.15;1.70;;;21.10;97.60;;;;;;4975981;28;20172;-75
2023/10/21 09:37:03;;;;;;;4.40;1.55;;;20.40;98.40;;;;;;4975798;28;20178;-76
2023/10/21 09:39:34;;;;;;;2.97;1.50;;;20.20;99.30;;;;;;4976423;28;20218;-76
2023/10/21 09:42:00;;;;;;;7.40;1.73;;;19.90;99.60;;;;;;4976132;28;20238;-75
2023/10/21 09:44:26;;;;;;;3.92;1.50;;;19.80;99.90;;;;;;4974504;28;20375;-76
2023/10/21 09:46:55;;;;;;;5.53;1.80;;;19.40;99.90;;;;;;4975237;28;20191;-75
2023/10/21 09:49:23;;;;;;;5.55;1.90;;;19.40;99.90;;;;;;4975782;28;20168;-75
2023/10/21 09:52:05;;;;;;;4.20;1.90;;;19.70;99.80;;;;;;4975660;28;20273;-75
2023/10/21 09:54:41;;;;;;;8.27;2.10;;;19.60;99.70;;;;;;4975789;28;20168;-75
2023/10/21 09:57:11;;;;;;;7.63;2.08;;;19.50;99.90;;;;;;4975429;28;20188;-75
2023/10/21 09:59:38;;;;;;;4.13;1.70;;;19.80;99.10;;;;;;4975756;28;20184;-75
2023/10/21 10:02:06;;;;;;;9.20;2.00;;;19.90;99.30;;;;;;4975950;28;20266;-74
2023/10/21 10:04:34;;;;;;;5.03;1.92;;;19.60;98.90;;;;;;4975695;28;20172;-75
2023/10/21 10:07:05;;;;;;;4.75;2.05;;;19.70;99.10;;;;;;4974852;28;20201;-75
2023/10/21 10:09:33;;;;;;;7.80;2.00;;;19.90;98.50;;;;;;4975188;28;20172;-75
2023/10/21 10:12:01;;;;;;;3.92;1.80;;;20.20;98.50;;;;;;4975728;28;20183;-76
2023/10/21 10:14:30;;;;;;;4.35;1.92;;;20.30;96.90;;;;;;4975481;28;20189;-75
2023/10/21 10:16:56;;;;;;;4.88;1.90;;;20.20;97.40;;;;;;4975735;28;20511;-75
2023/10/21 10:19:37;;;;;;;4.75;1.98;;;20.20;97.90;;;;;;4974947;28;20230;-77
2023/10/21 10:22:20;;;;;;;3.95;1.88;;;19.90;98.70;;;;;;4973335;28;20180;-75
2023/10/21 10:25:10;;;;;;;5.05;2.20;;;19.30;99.90;;;;;;4975387;28;20239;-75
2023/10/21 10:27:40;;;;;;;6.07;1.80;;;19.20;99.90;;;;;;4975461;28;20168;-75
2023/10/21 10:30:21;;;;;;;6.95;2.22;;;18.90;99.90;;;;;;4974584;28;20182;-76
2023/10/21 10:32:52;;;;;;;6.15;2.20;;;19.10;99.90;;;;;;4974709;28;20624;-77
2023/10/21 10:35:32;;;;;;;6.35;2.42;;;19.20;99.90;;;;;;4974655;28;20179;-76
2023/10/21 10:38:01;;;;;;;5.05;1.92;;;19.00;99.90;;;;;;4974885;28;20230;-76
2023/10/21 10:40:40;;;;;;;8.50;2.30;;;19.10;99.90;;;;;;4974904;28;20636;-75
2023/10/21 10:43:13;;;;;;;6.45;2.25;;;18.80;99.90;;;;;;4974601;28;20180;-74
2023/10/21 10:45:39;;;;;;;6.15;2.22;;;19.00;99.90;;;;;;4975150;28;20235;-76
2023/10/21 10:48:07;;;;;;;4.95;1.88;;;19.20;99.90;;;;;;4975141;28;20175;-76
2023/10/21 10:50:36;;;;;;;9.75;2.90;;;19.10;99.70;;;;;;4974530;28;20187;-76
2023/10/21 10:53:20;;;;;;;6.40;2.42;;;18.90;99.90;;;;;;4974714;28;20202;-76
2023/10/21 10:55:54;;;;;;;6.10;2.15;;;18.80;99.90;;;;;;4974538;28;20176;-77
2023/10/21 10:58:21;;;;;;;8.27;2.50;;;18.60;99.90;;;;;;4974345;28;20180;-77
2023/10/21 11:00:48;;;;;;;5.93;2.30;;;18.30;99.90;;;;;;4974570;28;20636;-75
2023/10/21 11:03:28;;;;;;;8.48;2.47;;;18.00;99.90;;;;;;4974699;28;20179;-76
2023/10/21 11:05:55;;;;;;;5.53;2.20;;;17.90;99.90;;;;;;4974034;28;20206;-75
2023/10/21 11:08:21;;;;;;;10.30;2.38;;;17.80;99.90;;;;;;4974606;28;20180;-75
2023/10/21 11:10:47;;;;;;;7.65;2.20;;;17.50;99.90;;;;;;4974167;28;20188;-76
2023/10/21 11:13:13;;;;;;;9.77;2.75;;;17.10;99.90;;;;;;4973579;28;20191;-75
2023/10/21 11:15:44;;;;;;;9.23;2.20;;;16.90;99.90;;;;;;4974198;28;20180;-74
2023/10/21 11:18:12;;;;;;;13.45;3.17;;;16.90;99.90;;;;;;4974169;28;20176;-75
2023/10/21 11:20:51;;;;;;;7.22;2.10;;;17.00;99.90;;;;;;4974174;28;20226;-77
2023/10/21 11:23:26;;;;;;;5.60;1.73;;;16.70;99.90;;;;;;4973886;28;20235;-78
2023/10/21 11:25:54;;;;;;;6.13;2.30;;;16.50;99.90;;;;;;4974077;28;20262;-77
2023/10/21 11:28:21;;;;;;;11.80;2.40;;;16.30;99.90;;;;;;4973782;28;20184;-77
2023/10/21 11:30:47;;;;;;;9.93;2.63;;;16.60;99.90;;;;;;4974206;28;20180;-76
2023/10/21 11:33:15;;;;;;;7.90;2.47;;;16.70;99.90;;;;;;4972935;28;20190;-75
2023/10/21 11:35:43;;;;;;;11.50;2.27;;;16.60;99.90;;;;;;4974489;28;20167;-75
2023/10/21 11:38:10;;;;;;;7.47;2.47;;;16.60;99.90;;;;;;4973684;28;20635;-75
2023/10/21 11:40:37;;;;;;;9.50;2.17;;;16.50;99.90;;;;;;4972825;28;20528;-75
2023/10/21 11:43:06;;;;;;;9.30;2.30;;;16.40;99.90;;;;;;4973754;28;20259;-77
2023/10/21 11:45:32;;;;;;;12.73;2.10;;;16.30;99.90;;;;;;4972785;28;20244;-76
2023/10/21 11:48:01;;;;;;;11.07;2.43;;;16.30;99.90;;;;;;4973371;28;20183;-76
2023/10/21 11:50:35;;;;;;;13.63;3.03;;;16.20;99.90;;;;;;4973868;28;20191;-75
2023/10/21 11:53:02;;;;;;;9.77;2.70;;;16.40;99.90;;;;;;4974090;28;20752;-77
2023/10/21 11:59:29;;;;;;;8.40;2.30;;;16.20;99.90;;;;;;4973480;28;20198;-76
2023/10/21 12:33:42;;;;;;;10.77;2.70;;;15.90;99.90;;;;;;4973309;28;20172;-76
2023/10/21 12:38:58;;;;;;;13.30;3.17;;;16.00;99.90;;;;;;4973166;28;20263;-76
2023/10/21 12:41:26;;;;;;;10.70;2.70;;;15.90;99.90;;;;;;4973118;28;20188;-77
2023/10/21 12:43:55;;;;;;;11.07;3.13;;;16.00;99.90;;;;;;4972979;28;20176;-76
2023/10/21 12:46:30;;;;;;;11.33;2.43;;;16.00;99.90;;;;;;4973361;28;20214;-76
2023/10/21 12:48:57;;;;;;;10.00;2.87;;;16.00;99.90;;;;;;4973416;28;20168;-76
2023/10/21 12:51:24;;;;;;;6.90;2.17;;;15.90;99.90;;;;;;4973042;28;20172;-76
2023/10/21 12:53:50;;;;;;;9.97;2.90;;;15.70;99.90;;;;;;4973179;28;20164;-75
2023/10/21 12:56:16;;;;;;;9.13;2.97;;;15.70;99.90;;;;;;4975789;28;20564;-75
2023/10/21 12:58:42;;;;;;;5.50;2.13;;;15.60;99.90;;;;;;4976937;28;20191;-75
2023/10/21 13:01:15;;;;;;;8.47;2.83;;;15.50;99.90;;;;;;4975968;28;20176;-75
2023/10/21 13:03:42;;;;;;;8.90;2.60;;;15.40;99.90;;;;;;4975800;28;20176;-75
2023/10/21 13:06:10;;;;;;;9.17;2.40;;;15.30;99.90;;;;;;4976042;28;20218;-76
2023/10/21 13:08:36;;;;;;;9.43;3.10;;;15.10;99.90;;;;;;4976468;28;20223;-75
2023/10/21 13:11:03;;;;;;;9.90;3.20;;;15.10;99.90;;;;;;4976581;28;20636;-75
2023/10/21 13:13:34;;;;;;;13.30;2.60;;;15.10;99.90;;;;;;4976489;28;20183;-76
2023/10/21 13:15:59;;;;;;;9.00;2.43;;;15.10;99.90;;;;;;4976079;28;20172;-75
2023/10/21 13:18:25;;;;;;;11.13;2.97;;;15.10;99.90;;;;;;4976343;28;20506;-75
2023/10/21 13:20:52;;;;;;;11.13;2.80;;;15.10;99.90;;;;;;4976531;28;20180;-75
2023/10/21 13:23:19;;;;;;;7.43;2.63;;;15.20;99.90;;;;;;4975879;28;20758;-75
2023/10/21 13:25:44;;;;;;;10.43;3.20;;;15.20;99.90;;;;;;4975858;28;20668;-75